createdAt,value
2022-12-06T00:01:35.942Z,40.10
2022-12-06T00:04:04.284Z,38.67
2022-12-06T00:06:33.129Z,33.23
2022-12-06T00:09:01.198Z,40.27
2022-12-06T00:11:29.636Z,36.47
2022-12-06T00:13:57.675Z,31.77
2022-12-06T00:16:27.281Z,31.97
2022-12-06T00:18:55.201Z,36.33
2022-12-06T00:21:24.544Z,35.30
2022-12-06T00:23:52.948Z,34.07
2022-12-06T00:26:20.912Z,30.07
2022-12-06T00:28:48.437Z,32.10
2022-12-06T00:31:16.549Z,35.60
2022-12-06T00:33:45.621Z,34.20
2022-12-06T00:36:13.756Z,31.07
2022-12-06T00:38:41.357Z,38.43
2022-12-06T00:41:10.213Z,31.53
2022-12-06T00:43:38.283Z,33.63
2022-12-06T00:46:06.538Z,38.93
2022-12-06T00:48:34.312Z,36.73
2022-12-06T00:51:03.137Z,33.03
2022-12-06T00:53:30.875Z,35.67
2022-12-06T00:55:58.373Z,39.23
2022-12-06T00:58:25.936Z,31.60
2022-12-06T01:00:53.791Z,33.83
2022-12-06T01:03:21.422Z,35.67
2022-12-06T01:05:50.386Z,35.33
2022-12-06T01:08:19.856Z,39.83
2022-12-06T01:10:52.993Z,33.17
2022-12-06T01:13:20.589Z,36.83
2022-12-06T01:15:48.174Z,34.83
2022-12-06T01:18:15.763Z,33.37
2022-12-06T01:20:43.282Z,32.13
2022-12-06T01:23:10.804Z,34.07
2022-12-06T01:25:39.674Z,32.30
2022-12-06T01:28:07.479Z,29.67
2022-12-06T01:30:35.012Z,32.27
2022-12-06T01:33:02.557Z,35.97
2022-12-06T01:35:30.115Z,34.50
2022-12-06T01:38:01.605Z,34.10
2022-12-06T01:40:37.143Z,34.27
2022-12-06T01:43:07.165Z,32.57
2022-12-06T01:45:34.669Z,33.70
2022-12-06T01:48:02.213Z,33.67
2022-12-06T01:50:32.776Z,36.63
2022-12-06T01:53:02.024Z,34.57
2022-12-06T01:55:31.845Z,34.77
2022-12-06T01:58:01.107Z,38.73
2022-12-06T02:00:29.963Z,34.60
2022-12-06T02:02:59.613Z,36.23
2022-12-06T02:05:27.309Z,34.13
2022-12-06T02:07:55.052Z,32.83
2022-12-06T02:10:23.099Z,38.07
2022-12-06T02:12:53.776Z,36.90
2022-12-06T02:15:22.165Z,36.17
2022-12-06T02:17:55.306Z,39.20
2022-12-06T02:20:26.298Z,36.53
2022-12-06T02:23:21.892Z,35.87
2022-12-06T02:25:59.843Z,39.60
2022-12-06T02:28:39.472Z,34.87
2022-12-06T02:31:09.853Z,36.23
2022-12-06T02:33:45.019Z,34.77
2022-12-06T02:36:16.325Z,35.93
2022-12-06T02:38:45.433Z,35.57
2022-12-06T02:41:22.184Z,31.67
2022-12-06T02:43:52.505Z,31.97
2022-12-06T02:46:23.019Z,35.80
2022-12-06T02:48:52.910Z,34.47
2022-12-06T02:51:20.831Z,37.00
2022-12-06T02:53:49.515Z,32.10
2022-12-06T02:56:17.783Z,33.72
2022-12-06T02:58:45.356Z,33.00
2022-12-06T03:01:13.800Z,36.97
2022-12-06T03:03:50.402Z,35.90
2022-12-06T03:06:26.057Z,34.83
2022-12-06T03:09:00.741Z,36.10
2022-12-06T03:11:30.020Z,40.30
2022-12-06T03:14:02.338Z,34.03
2022-12-06T03:16:31.100Z,37.57
2022-12-06T03:19:04.306Z,33.50
2022-12-06T03:21:34.387Z,43.03
2022-12-06T03:24:01.932Z,34.77
2022-12-06T03:26:32.088Z,32.60
2022-12-06T03:29:01.129Z,34.90
2022-12-06T03:31:29.883Z,35.00
2022-12-06T03:33:59.374Z,34.27
2022-12-06T03:36:28.852Z,38.83
2022-12-06T03:38:56.876Z,37.17
2022-12-06T03:41:26.741Z,33.10
2022-12-06T03:43:54.391Z,38.53
2022-12-06T03:46:22.645Z,33.03
2022-12-06T03:48:51.620Z,34.93
2022-12-06T03:51:21.371Z,35.47
2022-12-06T03:53:52.046Z,40.10
2022-12-06T03:56:19.551Z,26.27
2022-12-06T03:58:47.220Z,33.10
2022-12-06T04:01:14.761Z,29.93
2022-12-06T04:03:42.374Z,36.53
2022-12-06T04:06:10.505Z,38.10
2022-12-06T04:08:38.066Z,34.67
2022-12-06T04:11:07.658Z,31.67
2022-12-06T04:13:35.655Z,38.90
2022-12-06T04:16:03.646Z,32.53
2022-12-06T04:18:30.214Z,32.87
2022-12-06T04:21:31.093Z,33.60
2022-12-06T04:23:58.846Z,37.23
2022-12-06T04:26:27.892Z,38.53
2022-12-06T04:29:13.126Z,31.77
2022-12-06T04:31:58.842Z,34.93
2022-12-06T04:34:43.851Z,32.43
2022-12-06T04:37:28.821Z,31.77
2022-12-06T04:39:56.625Z,32.40
2022-12-06T04:42:57.433Z,33.87
2022-12-06T04:45:24.967Z,36.67
2022-12-06T04:47:53.645Z,34.97
2022-12-06T04:50:21.157Z,38.53
2022-12-06T04:52:48.666Z,31.30
2022-12-06T04:55:16.330Z,35.37
2022-12-06T04:57:45.262Z,35.27
2022-12-06T05:00:13.302Z,36.23
2022-12-06T05:02:40.843Z,33.33
2022-12-06T05:05:08.955Z,33.77
2022-12-06T05:07:36.741Z,30.70
2022-12-06T05:10:04.689Z,29.43
2022-12-06T05:12:32.182Z,35.03
2022-12-06T05:15:00.980Z,33.83
2022-12-06T05:17:28.479Z,33.07
2022-12-06T05:19:56.050Z,31.20
2022-12-06T05:22:23.650Z,33.73
2022-12-06T05:24:51.763Z,33.33
2022-12-06T05:27:19.318Z,31.67
2022-12-06T05:29:46.907Z,31.67
2022-12-06T05:32:19.546Z,33.67
2022-12-06T05:34:47.257Z,35.77
2022-12-06T05:37:15.105Z,33.60
2022-12-06T05:39:42.681Z,33.10
2022-12-06T05:42:19.877Z,31.57
2022-12-06T05:44:49.851Z,30.27
2022-12-06T05:47:18.711Z,31.53
2022-12-06T05:49:46.771Z,30.57
2022-12-06T05:52:14.916Z,31.90
2022-12-06T05:54:42.401Z,28.97
2022-12-06T05:57:10.313Z,28.73
2022-12-06T05:59:37.859Z,32.73
2022-12-06T06:02:05.676Z,30.27
2022-12-06T06:04:34.990Z,31.57
2022-12-06T06:07:02.812Z,32.43
2022-12-06T06:09:30.377Z,30.55
2022-12-06T06:11:57.945Z,31.80
2022-12-06T06:14:25.392Z,29.67
2022-12-06T06:16:53.196Z,29.73
2022-12-06T06:19:23.392Z,26.47
2022-12-06T06:21:52.327Z,27.93
2022-12-06T06:24:19.946Z,30.97
2022-12-06T06:26:47.529Z,33.57
2022-12-06T06:29:15.608Z,32.57
2022-12-06T06:31:43.796Z,29.93
2022-12-06T06:34:11.612Z,32.37
2022-12-06T06:36:44.108Z,35.20
2022-12-06T06:39:14.886Z,28.47
2022-12-06T06:41:42.397Z,28.05
2022-12-06T06:44:10.078Z,31.23
2022-12-06T06:46:37.780Z,34.17
2022-12-06T06:49:05.945Z,42.13
2022-12-06T06:51:34.221Z,39.97
2022-12-06T06:54:01.871Z,37.10
2022-12-06T06:56:31.657Z,31.27
2022-12-06T06:58:59.221Z,39.77
2022-12-06T07:01:27.431Z,36.03
2022-12-06T07:03:55.183Z,34.80
2022-12-06T07:06:22.718Z,30.20
2022-12-06T07:08:50.618Z,33.57
2022-12-06T07:11:18.341Z,28.27
2022-12-06T07:13:52.557Z,31.73
2022-12-06T07:16:20.898Z,26.05
2022-12-06T07:18:48.604Z,32.95
2022-12-06T07:21:17.293Z,29.00
2022-12-06T07:35:00.927Z,38.30
2022-12-06T07:37:39.116Z,41.57
2022-12-06T07:40:07.931Z,41.87
2022-12-06T07:50:25.412Z,33.17
2022-12-06T07:53:05.893Z,37.47
2022-12-06T07:55:44.060Z,33.67
2022-12-06T07:58:45.545Z,36.50
2022-12-06T08:02:01.865Z,37.93
2022-12-06T08:04:48.303Z,35.30
2022-12-06T08:07:31.099Z,41.23
2022-12-06T08:10:10.869Z,37.33
2022-12-06T08:16:05.895Z,40.87
2022-12-06T08:18:34.250Z,39.13
2022-12-06T08:21:01.947Z,36.30
2022-12-06T08:23:40.968Z,30.08
2022-12-06T08:29:30.909Z,32.13
2022-12-06T08:32:36.513Z,35.40
2022-12-06T08:35:43.769Z,29.25
2022-12-06T08:38:37.122Z,29.20
2022-12-06T08:41:33.773Z,31.90
2022-12-06T08:44:53.134Z,32.25
2022-12-06T08:47:44.428Z,30.85
2022-12-06T08:50:42.459Z,30.45
2022-12-06T08:54:18.320Z,28.58
2022-12-06T08:56:56.578Z,22.43
2022-12-06T09:03:19.413Z,19.27
2022-12-06T09:06:38.585Z,23.30
2022-12-06T09:10:16.838Z,24.05
2022-12-06T09:13:29.936Z,19.95
2022-12-06T09:20:05.474Z,15.40
2022-12-06T09:22:45.676Z,15.60
2022-12-06T09:25:14.635Z,20.08
2022-12-06T11:42:58.439Z,17.48
2022-12-06T11:45:28.624Z,20.70
2022-12-06T11:47:56.893Z,18.93
2022-12-06T11:50:26.020Z,13.23
2022-12-06T11:52:55.733Z,18.70
2022-12-06T11:55:56.912Z,17.57
2022-12-06T11:58:28.006Z,19.57
2022-12-06T12:01:01.971Z,20.90
2022-12-06T12:03:30.695Z,27.05
2022-12-06T12:06:16.416Z,23.40
2022-12-06T12:08:51.945Z,26.87
2022-12-06T12:11:20.673Z,19.17
2022-12-06T12:13:51.211Z,17.42
2022-12-06T12:16:21.624Z,19.60
2022-12-06T12:18:54.950Z,15.50
2022-12-06T12:21:33.570Z,12.13
2022-12-06T12:24:01.144Z,15.20
2022-12-06T12:26:39.981Z,14.80
2022-12-06T12:29:15.481Z,14.57
2022-12-06T12:31:54.388Z,11.83
2022-12-06T12:34:22.612Z,11.60
2022-12-06T12:36:51.284Z,10.65
2022-12-06T12:39:27.365Z,12.45
2022-12-06T12:41:55.053Z,15.23
2022-12-06T12:44:40.119Z,9.82
2022-12-06T12:47:16.793Z,12.17
2022-12-06T12:49:44.423Z,15.48
2022-12-06T12:52:27.459Z,11.37
2022-12-06T12:55:00.066Z,13.50
2022-12-06T12:57:27.780Z,14.23
2022-12-06T12:59:55.408Z,12.27
2022-12-06T13:02:27.037Z,16.48
2022-12-06T13:05:17.212Z,15.87
2022-12-06T13:07:46.237Z,16.63
2022-12-06T13:10:19.309Z,14.37
2022-12-06T13:12:48.347Z,16.02
2022-12-06T13:15:18.070Z,15.63
2022-12-06T13:17:50.264Z,18.38
2022-12-06T13:20:22.925Z,13.13
2022-12-06T13:22:52.281Z,11.17
2022-12-06T13:25:20.348Z,12.67
2022-12-06T13:27:49.836Z,10.77
2022-12-06T13:30:19.993Z,11.93
2022-12-06T13:32:51.164Z,13.63
2022-12-06T13:35:24.794Z,12.80
2022-12-06T13:37:53.708Z,14.97
2022-12-06T13:40:36.175Z,15.77
2022-12-06T13:43:05.399Z,15.57
2022-12-06T13:45:41.220Z,17.77
2022-12-06T13:48:26.761Z,11.10
2022-12-06T13:50:57.053Z,16.90
2022-12-06T13:53:25.356Z,15.93
2022-12-06T13:55:59.158Z,13.63
2022-12-06T13:58:49.473Z,14.23
2022-12-06T14:01:50.565Z,14.40
2022-12-06T14:04:37.955Z,10.68
2022-12-06T14:09:42.621Z,11.13
2022-12-06T14:12:16.406Z,12.68
2022-12-06T14:14:55.007Z,14.37
2022-12-06T14:17:59.195Z,13.88
2022-12-06T14:20:19.831Z,12.83
2022-12-06T14:22:49.152Z,17.65
2022-12-06T14:25:20.733Z,14.27
2022-12-06T14:27:49.486Z,11.65
2022-12-06T14:30:23.518Z,13.37
2022-12-06T14:32:53.805Z,13.10
2022-12-06T14:35:24.034Z,11.00
2022-12-06T14:37:54.193Z,11.98
2022-12-06T14:40:45.199Z,12.80
2022-12-06T14:43:14.421Z,12.63
2022-12-06T14:45:42.643Z,15.13
2022-12-06T14:48:11.918Z,11.47
2022-12-06T14:50:41.587Z,10.65
2022-12-06T14:53:13.140Z,12.47
2022-12-06T14:55:52.543Z,10.65
2022-12-06T14:58:22.120Z,28.83
2022-12-06T15:00:52.270Z,12.77
2022-12-06T15:03:25.472Z,10.70
2022-12-06T15:06:09.224Z,12.63
2022-12-06T15:08:39.523Z,13.80
2022-12-06T15:11:36.631Z,12.47
2022-12-06T15:14:14.376Z,13.27
2022-12-06T15:16:42.273Z,12.00
2022-12-06T15:19:12.863Z,14.30
2022-12-06T15:21:40.722Z,13.00
2022-12-06T15:24:16.002Z,15.40
2022-12-06T15:26:43.603Z,13.57
2022-12-06T15:29:11.218Z,11.53
2022-12-06T15:31:39.314Z,15.15
2022-12-06T15:34:20.204Z,18.23
2022-12-06T15:36:47.848Z,12.53
2022-12-06T15:39:16.768Z,11.87
2022-12-06T15:41:44.355Z,11.40
2022-12-06T15:44:13.540Z,11.63
2022-12-06T15:46:41.228Z,15.55
2022-12-06T15:49:09.721Z,11.80
2022-12-06T15:51:37.258Z,14.40
2022-12-06T15:54:06.902Z,12.55
2022-12-06T15:56:36.016Z,11.52
2022-12-06T15:59:03.600Z,13.60
2022-12-06T16:01:34.504Z,13.93
2022-12-06T16:04:03.273Z,13.18
2022-12-06T16:06:30.809Z,13.85
2022-12-06T16:08:58.345Z,14.50
2022-12-06T16:11:27.253Z,13.77
2022-12-06T16:13:56.150Z,12.53
2022-12-06T16:16:23.764Z,13.57
2022-12-06T16:18:51.956Z,13.60
2022-12-06T16:21:20.751Z,19.08
2022-12-06T16:24:12.992Z,17.02
2022-12-06T16:26:44.110Z,14.75
2022-12-06T16:29:13.957Z,13.50
2022-12-06T16:31:42.330Z,15.07
2022-12-06T16:34:10.110Z,14.47
2022-12-06T16:36:54.241Z,17.17
2022-12-06T16:39:22.298Z,23.73
2022-12-06T16:41:49.881Z,17.60
2022-12-06T16:44:21.065Z,14.88
2022-12-06T16:46:48.849Z,20.50
2022-12-06T16:52:06.389Z,17.03
2022-12-06T16:54:33.969Z,13.90
2022-12-06T16:57:01.607Z,21.67
2022-12-06T16:59:30.608Z,17.17
2022-12-06T17:01:58.264Z,16.30
2022-12-06T17:04:26.772Z,14.23
2022-12-06T17:06:54.355Z,13.87
2022-12-06T17:09:21.920Z,15.13
2022-12-06T17:12:06.736Z,13.05
2022-12-06T17:14:37.948Z,11.57
2022-12-06T17:17:05.543Z,14.73
2022-12-06T17:19:34.428Z,17.75
2022-12-06T17:22:02.515Z,14.53
2022-12-06T17:24:30.853Z,11.10
2022-12-06T17:26:58.995Z,15.90
2022-12-06T17:29:26.606Z,13.23
2022-12-06T17:31:56.048Z,14.30
2022-12-06T17:34:25.655Z,13.90
2022-12-06T17:36:53.290Z,14.57
2022-12-06T17:39:21.835Z,14.45
2022-12-06T17:42:07.447Z,14.27
2022-12-06T17:44:35.463Z,13.85
2022-12-06T17:47:04.532Z,15.73
2022-12-06T17:49:36.253Z,20.70
2022-12-06T17:52:04.130Z,13.70
2022-12-06T17:54:31.688Z,13.60
2022-12-06T17:56:59.273Z,12.25
2022-12-06T17:59:28.636Z,9.95
2022-12-06T18:02:15.338Z,14.87
2022-12-06T18:04:45.202Z,21.77
2022-12-06T18:07:13.169Z,30.60
2022-12-06T18:09:46.842Z,18.70
2022-12-06T18:12:15.405Z,17.00
2022-12-06T18:14:43.087Z,11.85
2022-12-06T18:17:10.740Z,12.80
2022-12-06T18:19:38.412Z,15.20
2022-12-06T18:22:07.798Z,14.32
2022-12-06T18:24:36.288Z,10.30
2022-12-06T18:27:04.897Z,14.33
2022-12-06T18:29:32.503Z,12.13
2022-12-06T18:32:00.209Z,11.00
2022-12-06T18:34:27.992Z,10.00
2022-12-06T18:36:55.648Z,10.47
2022-12-06T18:39:25.399Z,9.30
2022-12-06T18:41:53.650Z,10.60
2022-12-06T18:44:21.230Z,12.47
2022-12-06T18:46:48.911Z,16.90
2022-12-06T18:49:16.508Z,9.82
2022-12-06T18:51:44.131Z,14.38
2022-12-06T18:54:13.568Z,10.15
2022-12-06T18:56:43.079Z,12.88
2022-12-06T18:59:12.173Z,10.68
2022-12-06T19:01:40.740Z,11.40
2022-12-06T19:04:11.424Z,11.97
2022-12-06T19:06:40.618Z,11.68
2022-12-06T19:09:09.908Z,10.47
2022-12-06T19:11:39.630Z,12.45
2022-12-06T19:14:08.919Z,13.88
2022-12-06T19:16:38.174Z,10.60
2022-12-06T19:19:11.257Z,9.70
2022-12-06T19:21:43.788Z,11.97
2022-12-06T19:24:12.060Z,10.33
2022-12-06T19:26:39.866Z,10.37
2022-12-06T19:29:08.817Z,10.07
2022-12-06T19:31:36.464Z,10.32
2022-12-06T19:34:04.200Z,12.47
2022-12-06T19:36:32.615Z,9.23
2022-12-06T19:39:01.368Z,10.25
2022-12-06T19:41:28.999Z,11.30
2022-12-06T19:44:14.001Z,9.65
2022-12-06T19:46:43.888Z,9.88
2022-12-06T19:49:12.003Z,8.98
2022-12-06T19:51:40.950Z,8.80
2022-12-06T19:54:08.984Z,8.60
2022-12-06T19:56:36.945Z,10.00
2022-12-06T19:59:11.438Z,10.37
2022-12-06T20:01:39.732Z,12.17
2022-12-06T20:04:09.054Z,10.43
2022-12-06T20:06:36.967Z,9.17
2022-12-06T20:09:05.055Z,10.38
2022-12-06T20:11:50.356Z,9.67
2022-12-06T20:14:18.808Z,12.45
2022-12-06T20:16:46.661Z,11.13
2022-12-06T20:19:16.506Z,14.37
2022-12-06T20:21:44.518Z,13.93
2022-12-06T20:24:12.604Z,19.40
2022-12-06T20:26:40.282Z,25.30
2022-12-06T20:29:08.406Z,11.80
2022-12-06T20:31:36.322Z,12.13
2022-12-06T20:34:07.867Z,11.50
2022-12-06T20:36:40.495Z,19.00
2022-12-06T20:39:08.321Z,15.50
2022-12-06T20:41:36.017Z,15.90
2022-12-06T20:44:03.776Z,14.88
2022-12-06T20:46:32.515Z,15.00
2022-12-06T20:49:02.616Z,12.07
2022-12-06T20:51:31.440Z,14.43
2022-12-06T20:54:01.300Z,12.38
2022-12-06T20:56:30.331Z,10.37
2022-12-06T20:58:58.898Z,10.47
2022-12-06T21:01:27.500Z,10.97
2022-12-06T21:03:55.506Z,10.03
2022-12-06T21:06:23.795Z,14.67
2022-12-06T21:08:51.636Z,31.43
2022-12-06T21:11:23.096Z,27.05
2022-12-06T21:13:51.778Z,17.83
2022-12-06T21:16:20.026Z,14.27
2022-12-06T21:18:49.397Z,21.25
2022-12-06T21:21:27.021Z,17.65
2022-12-06T21:23:54.661Z,16.48
2022-12-06T21:26:23.608Z,17.00
2022-12-06T21:28:52.631Z,17.53
2022-12-06T21:31:20.434Z,18.63
2022-12-06T21:33:48.020Z,17.88
2022-12-06T21:36:15.703Z,15.40
2022-12-06T21:38:43.286Z,13.70
2022-12-06T21:41:12.628Z,13.13
2022-12-06T21:43:41.676Z,14.97
2022-12-06T21:46:11.027Z,13.03
2022-12-06T21:48:39.342Z,13.57
2022-12-06T21:51:08.078Z,11.57
2022-12-06T21:53:36.138Z,12.33
2022-12-06T21:56:06.505Z,11.23
2022-12-06T21:58:36.750Z,12.40
2022-12-06T22:01:08.384Z,11.93
2022-12-06T22:03:36.351Z,12.43
2022-12-06T22:06:07.225Z,34.65
2022-12-06T22:08:34.810Z,29.08
2022-12-06T22:11:02.408Z,18.35
2022-12-06T22:13:29.932Z,13.10
2022-12-06T22:16:01.650Z,11.98
2022-12-06T22:18:30.653Z,12.50
2022-12-06T22:20:59.327Z,14.40
2022-12-06T22:23:26.909Z,13.63
2022-12-06T22:25:54.557Z,17.08
2022-12-06T22:28:22.094Z,16.58
2022-12-06T22:30:49.814Z,16.70
2022-12-06T22:33:17.447Z,13.45
2022-12-06T22:35:46.425Z,12.32
2022-12-06T22:38:13.982Z,12.23
2022-12-06T22:40:41.515Z,13.30
2022-12-06T22:43:09.335Z,16.23
2022-12-06T22:45:36.948Z,14.70
2022-12-06T22:48:04.602Z,15.60
2022-12-06T22:50:43.543Z,12.00
2022-12-06T22:53:12.422Z,9.38
2022-12-06T22:55:40.142Z,16.08
2022-12-06T22:58:07.773Z,12.20
2022-12-06T23:00:35.366Z,14.05
2022-12-06T23:03:02.860Z,13.15
2022-12-06T23:05:30.411Z,12.85
2022-12-06T23:07:58.019Z,13.77
2022-12-06T23:10:26.950Z,17.17
2022-12-06T23:12:54.488Z,13.98
2022-12-06T23:15:22.128Z,12.98
2022-12-06T23:17:49.701Z,12.93
2022-12-06T23:20:17.288Z,15.90
2022-12-06T23:22:44.806Z,14.05
2022-12-06T23:25:12.385Z,18.05
2022-12-06T23:27:41.293Z,13.18
2022-12-06T23:30:09.630Z,17.43
2022-12-06T23:32:37.179Z,12.75
2022-12-06T23:35:04.834Z,12.88
2022-12-06T23:37:32.405Z,12.82
2022-12-06T23:40:00.231Z,14.95
2022-12-06T23:42:29.234Z,12.57
2022-12-06T23:45:01.150Z,15.57
2022-12-06T23:47:29.238Z,13.80
2022-12-06T23:49:57.567Z,14.32
2022-12-06T23:52:26.314Z,14.23
2022-12-06T23:54:55.487Z,15.57
2022-12-06T23:57:25.097Z,15.70
2022-12-06T23:59:53.101Z,16.07
